sensor_id;sensor_type;location;lat;lon;timestamp;temperature;humidity
21895;DHT22;11112;51.270;7.224;2023-03-08T00:01:22;5.90;99.90
21895;DHT22;11112;51.270;7.224;2023-03-08T00:03:52;5.90;99.90
21895;DHT22;11112;51.270;7.224;2023-03-08T00:06:20;5.90;99.80
21895;DHT22;11112;51.270;7.224;2023-03-08T00:08:48;5.90;99.90
21895;DHT22;11112;51.270;7.224;2023-03-08T00:11:15;5.90;99.80
21895;DHT22;11112;51.270;7.224;2023-03-08T00:13:44;5.90;99.70
21895;DHT22;11112;51.270;7.224;2023-03-08T00:16:12;5.90;99.90
21895;DHT22;11112;51.270;7.224;2023-03-08T00:18:40;5.90;99.90
21895;DHT22;11112;51.270;7.224;2023-03-08T00:21:09;5.90;99.90
21895;DHT22;11112;51.270;7.224;2023-03-08T00:23:38;5.90;99.90
21895;DHT22;11112;51.270;7.224;2023-03-08T00:26:07;5.90;99.90
21895;DHT22;11112;51.270;7.224;2023-03-08T00:28:36;5.90;99.90
21895;DHT22;11112;51.270;7.224;2023-03-08T00:31:07;5.90;99.90
21895;DHT22;11112;51.270;7.224;2023-03-08T00:33:37;5.90;99.90
21895;DHT22;11112;51.270;7.224;2023-03-08T00:36:08;5.90;99.90
21895;DHT22;11112;51.270;7.224;2023-03-08T00:38:39;5.90;99.90
21895;DHT22;11112;51.270;7.224;2023-03-08T00:41:08;5.90;99.90
21895;DHT22;11112;51.270;7.224;2023-03-08T00:43:41;5.90;99.90
21895;DHT22;11112;51.270;7.224;2023-03-08T00:46:10;5.90;99.90
21895;DHT22;11112;51.270;7.224;2023-03-08T00:48:38;5.90;99.90
21895;DHT22;11112;51.270;7.224;2023-03-08T00:51:08;5.90;99.90
21895;DHT22;11112;51.270;7.224;2023-03-08T00:53:38;5.90;99.90
21895;DHT22;11112;51.270;7.224;2023-03-08T00:56:07;5.90;99.90
21895;DHT22;11112;51.270;7.224;2023-03-08T00:58:36;5.90;99.90
21895;DHT22;11112;51.270;7.224;2023-03-08T01:01:05;5.90;99.90
21895;DHT22;11112;51.270;7.224;2023-03-08T01:03:35;5.90;99.90
21895;DHT22;11112;51.270;7.224;2023-03-08T01:06:06;5.90;99.90
21895;DHT22;11112;51.270;7.224;2023-03-08T01:08:36;5.90;99.90
21895;DHT22;11112;51.270;7.224;2023-03-08T01:11:05;5.90;99.90
21895;DHT22;11112;51.270;7.224;2023-03-08T01:13:34;5.90;99.90
21895;DHT22;11112;51.270;7.224;2023-03-08T01:16:02;5.90;99.90
21895;DHT22;11112;51.270;7.224;2023-03-08T01:18:30;5.90;99.90
21895;DHT22;11112;51.270;7.224;2023-03-08T01:21:01;5.90;99.90
21895;DHT22;11112;51.270;7.224;2023-03-08T01:23:32;6.00;99.90
21895;DHT22;11112;51.270;7.224;2023-03-08T01:26:01;6.00;99.90
21895;DHT22;11112;51.270;7.224;2023-03-08T01:28:30;6.00;99.90
21895;DHT22;11112;51.270;7.224;2023-03-08T01:31:03;6.00;99.90
21895;DHT22;11112;51.270;7.224;2023-03-08T01:33:32;6.00;99.90
21895;DHT22;11112;51.270;7.224;2023-03-08T01:36:03;6.00;99.90
21895;DHT22;11112;51.270;7.224;2023-03-08T01:38:31;5.90;99.90
21895;DHT22;11112;51.270;7.224;2023-03-08T01:40:59;5.90;99.90
21895;DHT22;11112;51.270;7.224;2023-03-08T01:43:30;5.90;99.90
21895;DHT22;11112;51.270;7.224;2023-03-08T01:46:06;5.90;99.90
21895;DHT22;11112;51.270;7.224;2023-03-08T01:48:40;6.00;99.90
21895;DHT22;11112;51.270;7.224;2023-03-08T01:51:13;6.00;99.90
21895;DHT22;11112;51.270;7.224;2023-03-08T01:53:43;6.00;99.90
21895;DHT22;11112;51.270;7.224;2023-03-08T01:56:12;5.90;99.90
21895;DHT22;11112;51.270;7.224;2023-03-08T01:58:43;5.90;99.90
21895;DHT22;11112;51.270;7.224;2023-03-08T02:01:10;5.90;99.90
21895;DHT22;11112;51.270;7.224;2023-03-08T02:03:38;5.90;99.90
21895;DHT22;11112;51.270;7.224;2023-03-08T02:06:06;5.90;99.90
21895;DHT22;11112;51.270;7.224;2023-03-08T02:08:36;5.90;99.90
21895;DHT22;11112;51.270;7.224;2023-03-08T02:11:03;5.90;99.90
21895;DHT22;11112;51.270;7.224;2023-03-08T02:13:32;5.80;99.90
21895;DHT22;11112;51.270;7.224;2023-03-08T02:16:02;5.90;99.90
21895;DHT22;11112;51.270;7.224;2023-03-08T02:18:32;5.90;99.90
21895;DHT22;11112;51.270;7.224;2023-03-08T02:21:00;5.90;99.90
21895;DHT22;11112;51.270;7.224;2023-03-08T02:23:30;5.90;99.90
21895;DHT22;11112;51.270;7.224;2023-03-08T02:25:59;5.80;99.90
21895;DHT22;11112;51.270;7.224;2023-03-08T02:28:29;5.80;99.90
21895;DHT22;11112;51.270;7.224;2023-03-08T02:31:00;5.80;99.90
21895;DHT22;11112;51.270;7.224;2023-03-08T02:33:28;5.80;99.90
21895;DHT22;11112;51.270;7.224;2023-03-08T02:35:56;5.80;99.90
21895;DHT22;11112;51.270;7.224;2023-03-08T02:38:29;5.80;99.90
21895;DHT22;11112;51.270;7.224;2023-03-08T02:40:56;5.80;99.90
21895;DHT22;11112;51.270;7.224;2023-03-08T02:43:24;5.80;99.90
21895;DHT22;11112;51.270;7.224;2023-03-08T02:45:52;5.80;99.90
21895;DHT22;11112;51.270;7.224;2023-03-08T02:48:21;5.80;99.90
21895;DHT22;11112;51.270;7.224;2023-03-08T02:50:49;5.90;99.90
21895;DHT22;11112;51.270;7.224;2023-03-08T02:53:16;5.90;99.90
21895;DHT22;11112;51.270;7.224;2023-03-08T02:55:45;5.90;99.90
21895;DHT22;11112;51.270;7.224;2023-03-08T02:58:12;5.80;99.90
21895;DHT22;11112;51.270;7.224;2023-03-08T03:00:40;5.80;99.90
21895;DHT22;11112;51.270;7.224;2023-03-08T03:03:07;5.80;99.90
21895;DHT22;11112;51.270;7.224;2023-03-08T03:05:35;5.80;99.90
21895;DHT22;11112;51.270;7.224;2023-03-08T03:08:09;5.80;99.90
21895;DHT22;11112;51.270;7.224;2023-03-08T03:10:37;5.80;99.90
21895;DHT22;11112;51.270;7.224;2023-03-08T03:13:07;5.80;99.90
21895;DHT22;11112;51.270;7.224;2023-03-08T03:15:36;5.80;99.90
21895;DHT22;11112;51.270;7.224;2023-03-08T03:18:05;5.90;99.90
21895;DHT22;11112;51.270;7.224;2023-03-08T03:20:33;5.90;99.90
21895;DHT22;11112;51.270;7.224;2023-03-08T03:23:00;5.90;99.90
21895;DHT22;11112;51.270;7.224;2023-03-08T03:25:29;5.90;99.90
21895;DHT22;11112;51.270;7.224;2023-03-08T03:27:57;5.90;99.90
21895;DHT22;11112;51.270;7.224;2023-03-08T03:30:27;5.90;99.90
21895;DHT22;11112;51.270;7.224;2023-03-08T03:32:57;5.90;99.90
21895;DHT22;11112;51.270;7.224;2023-03-08T03:35:25;5.90;99.90
21895;DHT22;11112;51.270;7.224;2023-03-08T03:37:52;5.90;99.90
21895;DHT22;11112;51.270;7.224;2023-03-08T03:40:19;5.90;99.90
21895;DHT22;11112;51.270;7.224;2023-03-08T03:42:48;5.90;99.90
21895;DHT22;11112;51.270;7.224;2023-03-08T03:45:16;5.90;99.90
21895;DHT22;11112;51.270;7.224;2023-03-08T03:47:45;5.90;99.90
21895;DHT22;11112;51.270;7.224;2023-03-08T03:50:13;5.90;99.90
21895;DHT22;11112;51.270;7.224;2023-03-08T03:52:40;5.90;99.90
21895;DHT22;11112;51.270;7.224;2023-03-08T03:55:08;5.80;99.90
21895;DHT22;11112;51.270;7.224;2023-03-08T03:57:36;5.80;99.90
21895;DHT22;11112;51.270;7.224;2023-03-08T04:00:04;5.80;99.90
21895;DHT22;11112;51.270;7.224;2023-03-08T04:02:33;5.80;99.90
21895;DHT22;11112;51.270;7.224;2023-03-08T04:05:04;5.90;99.90
21895;DHT22;11112;51.270;7.224;2023-03-08T04:07:32;5.90;99.90
21895;DHT22;11112;51.270;7.224;2023-03-08T04:09:59;5.90;99.90
21895;DHT22;11112;51.270;7.224;2023-03-08T04:12:28;5.90;99.90
21895;DHT22;11112;51.270;7.224;2023-03-08T04:14:56;5.90;99.90
21895;DHT22;11112;51.270;7.224;2023-03-08T04:17:26;5.80;99.90
21895;DHT22;11112;51.270;7.224;2023-03-08T04:19:53;5.70;99.90
21895;DHT22;11112;51.270;7.224;2023-03-08T04:22:22;5.60;99.90
21895;DHT22;11112;51.270;7.224;2023-03-08T04:24:49;5.60;99.90
21895;DHT22;11112;51.270;7.224;2023-03-08T04:27:17;5.60;99.90
21895;DHT22;11112;51.270;7.224;2023-03-08T04:29:44;5.60;99.90
21895;DHT22;11112;51.270;7.224;2023-03-08T04:32:12;5.50;99.90
21895;DHT22;11112;51.270;7.224;2023-03-08T04:34:39;5.60;99.90
21895;DHT22;11112;51.270;7.224;2023-03-08T04:37:09;5.50;99.90
21895;DHT22;11112;51.270;7.224;2023-03-08T04:39:39;5.60;99.90
21895;DHT22;11112;51.270;7.224;2023-03-08T04:42:06;5.50;99.90
21895;DHT22;11112;51.270;7.224;2023-03-08T04:44:34;5.40;99.90
21895;DHT22;11112;51.270;7.224;2023-03-08T04:47:01;5.40;99.90
21895;DHT22;11112;51.270;7.224;2023-03-08T04:49:29;5.40;99.90
21895;DHT22;11112;51.270;7.224;2023-03-08T04:51:56;5.30;99.90
21895;DHT22;11112;51.270;7.224;2023-03-08T04:54:24;5.30;99.90
21895;DHT22;11112;51.270;7.224;2023-03-08T04:56:55;5.20;99.90
21895;DHT22;11112;51.270;7.224;2023-03-08T04:59:22;5.30;99.90
21895;DHT22;11112;51.270;7.224;2023-03-08T05:01:49;5.20;99.90
21895;DHT22;11112;51.270;7.224;2023-03-08T05:04:16;5.20;99.90
21895;DHT22;11112;51.270;7.224;2023-03-08T05:06:44;5.20;99.90
21895;DHT22;11112;51.270;7.224;2023-03-08T05:09:11;5.20;99.90
21895;DHT22;11112;51.270;7.224;2023-03-08T05:11:39;5.30;99.90
21895;DHT22;11112;51.270;7.224;2023-03-08T05:14:09;5.30;99.90
21895;DHT22;11112;51.270;7.224;2023-03-08T05:16:37;5.30;99.90
21895;DHT22;11112;51.270;7.224;2023-03-08T05:19:07;5.30;99.90
21895;DHT22;11112;51.270;7.224;2023-03-08T05:21:37;5.30;99.90
21895;DHT22;11112;51.270;7.224;2023-03-08T05:24:05;5.30;99.90
21895;DHT22;11112;51.270;7.224;2023-03-08T05:26:32;5.30;99.90
21895;DHT22;11112;51.270;7.224;2023-03-08T05:29:01;5.30;99.90
21895;DHT22;11112;51.270;7.224;2023-03-08T05:31:32;5.20;99.90
21895;DHT22;11112;51.270;7.224;2023-03-08T05:34:03;5.20;99.90
21895;DHT22;11112;51.270;7.224;2023-03-08T05:36:31;5.20;99.90
21895;DHT22;11112;51.270;7.224;2023-03-08T05:38:58;5.20;99.90
21895;DHT22;11112;51.270;7.224;2023-03-08T05:41:25;5.30;99.90
21895;DHT22;11112;51.270;7.224;2023-03-08T05:43:54;5.30;99.90
21895;DHT22;11112;51.270;7.224;2023-03-08T05:46:23;5.40;99.90
21895;DHT22;11112;51.270;7.224;2023-03-08T05:48:51;5.40;99.90
21895;DHT22;11112;51.270;7.224;2023-03-08T05:51:19;5.40;99.90
21895;DHT22;11112;51.270;7.224;2023-03-08T05:53:46;5.40;99.90
21895;DHT22;11112;51.270;7.224;2023-03-08T05:56:15;5.40;99.90
21895;DHT22;11112;51.270;7.224;2023-03-08T05:58:45;5.50;99.90
21895;DHT22;11112;51.270;7.224;2023-03-08T06:01:14;5.50;99.90
21895;DHT22;11112;51.270;7.224;2023-03-08T06:03:44;5.50;99.90
21895;DHT22;11112;51.270;7.224;2023-03-08T06:06:14;5.50;99.90
21895;DHT22;11112;51.270;7.224;2023-03-08T06:08:43;5.60;99.90
21895;DHT22;11112;51.270;7.224;2023-03-08T06:11:11;5.50;99.90
21895;DHT22;11112;51.270;7.224;2023-03-08T06:13:40;5.50;99.90
21895;DHT22;11112;51.270;7.224;2023-03-08T06:16:08;5.50;99.90
21895;DHT22;11112;51.270;7.224;2023-03-08T06:18:37;5.40;99.90
21895;DHT22;11112;51.270;7.224;2023-03-08T06:21:06;5.40;99.90
21895;DHT22;11112;51.270;7.224;2023-03-08T06:23:35;5.40;99.90
21895;DHT22;11112;51.270;7.224;2023-03-08T06:26:05;5.20;99.90
21895;DHT22;11112;51.270;7.224;2023-03-08T06:28:34;5.20;99.90
21895;DHT22;11112;51.270;7.224;2023-03-08T06:31:02;5.20;99.90
21895;DHT22;11112;51.270;7.224;2023-03-08T06:33:32;5.20;99.90
21895;DHT22;11112;51.270;7.224;2023-03-08T06:36:01;5.20;99.90
21895;DHT22;11112;51.270;7.224;2023-03-08T06:38:31;5.20;99.90
21895;DHT22;11112;51.270;7.224;2023-03-08T06:41:02;5.30;99.90
21895;DHT22;11112;51.270;7.224;2023-03-08T06:43:30;5.30;99.90
21895;DHT22;11112;51.270;7.224;2023-03-08T06:45:58;5.30;99.90
21895;DHT22;11112;51.270;7.224;2023-03-08T06:48:29;5.20;99.90
21895;DHT22;11112;51.270;7.224;2023-03-08T06:50:56;5.10;99.90
21895;DHT22;11112;51.270;7.224;2023-03-08T06:53:24;5.10;99.90
21895;DHT22;11112;51.270;7.224;2023-03-08T06:55:52;5.00;99.90
21895;DHT22;11112;51.270;7.224;2023-03-08T06:58:23;5.00;99.90
21895;DHT22;11112;51.270;7.224;2023-03-08T07:00:51;4.90;99.90
21895;DHT22;11112;51.270;7.224;2023-03-08T07:03:20;4.90;99.90
21895;DHT22;11112;51.270;7.224;2023-03-08T07:05:47;5.00;99.90
21895;DHT22;11112;51.270;7.224;2023-03-08T07:08:16;5.00;99.90
21895;DHT22;11112;51.270;7.224;2023-03-08T07:10:43;5.10;99.90
21895;DHT22;11112;51.270;7.224;2023-03-08T07:13:10;5.10;99.90
21895;DHT22;11112;51.270;7.224;2023-03-08T07:15:40;4.90;99.90
21895;DHT22;11112;51.270;7.224;2023-03-08T07:18:07;4.90;99.90
21895;DHT22;11112;51.270;7.224;2023-03-08T07:20:34;4.90;99.90
21895;DHT22;11112;51.270;7.224;2023-03-08T07:23:02;4.90;99.90
21895;DHT22;11112;51.270;7.224;2023-03-08T07:25:29;5.00;99.90
21895;DHT22;11112;51.270;7.224;2023-03-08T07:27:58;5.00;99.90
21895;DHT22;11112;51.270;7.224;2023-03-08T07:30:26;4.90;99.90
21895;DHT22;11112;51.270;7.224;2023-03-08T07:32:54;4.90;99.90
21895;DHT22;11112;51.270;7.224;2023-03-08T07:35:22;4.90;99.90
21895;DHT22;11112;51.270;7.224;2023-03-08T07:37:51;4.90;99.90
21895;DHT22;11112;51.270;7.224;2023-03-08T07:40:18;4.90;99.90
21895;DHT22;11112;51.270;7.224;2023-03-08T07:42:46;4.90;99.90
21895;DHT22;11112;51.270;7.224;2023-03-08T07:45:13;5.00;99.90
21895;DHT22;11112;51.270;7.224;2023-03-08T07:47:41;5.00;99.90
21895;DHT22;11112;51.270;7.224;2023-03-08T07:50:15;5.00;99.90
21895;DHT22;11112;51.270;7.224;2023-03-08T07:52:43;5.10;99.90
21895;DHT22;11112;51.270;7.224;2023-03-08T07:55:10;5.10;99.90
21895;DHT22;11112;51.270;7.224;2023-03-08T07:57:38;5.20;99.90
21895;DHT22;11112;51.270;7.224;2023-03-08T08:00:07;5.10;99.90
21895;DHT22;11112;51.270;7.224;2023-03-08T08:02:36;5.10;99.90
21895;DHT22;11112;51.270;7.224;2023-03-08T08:05:06;5.20;99.90
21895;DHT22;11112;51.270;7.224;2023-03-08T08:07:36;5.20;99.90
21895;DHT22;11112;51.270;7.224;2023-03-08T08:10:05;5.20;99.90
21895;DHT22;11112;51.270;7.224;2023-03-08T08:12:34;5.20;99.90
21895;DHT22;11112;51.270;7.224;2023-03-08T08:15:02;5.20;99.90
21895;DHT22;11112;51.270;7.224;2023-03-08T08:17:30;5.20;99.90
21895;DHT22;11112;51.270;7.224;2023-03-08T08:19:57;5.20;99.90
21895;DHT22;11112;51.270;7.224;2023-03-08T08:22:26;5.20;99.90
21895;DHT22;11112;51.270;7.224;2023-03-08T08:24:54;5.10;99.90
21895;DHT22;11112;51.270;7.224;2023-03-08T08:27:22;5.10;99.90
21895;DHT22;11112;51.270;7.224;2023-03-08T08:29:49;5.00;99.90
21895;DHT22;11112;51.270;7.224;2023-03-08T08:32:18;5.00;99.90
21895;DHT22;11112;51.270;7.224;2023-03-08T08:34:46;5.00;99.90
21895;DHT22;11112;51.270;7.224;2023-03-08T08:37:14;5.00;99.90
21895;DHT22;11112;51.270;7.224;2023-03-08T08:39:42;5.10;99.90
21895;DHT22;11112;51.270;7.224;2023-03-08T08:42:11;5.20;99.90
21895;DHT22;11112;51.270;7.224;2023-03-08T08:44:38;5.20;99.90
21895;DHT22;11112;51.270;7.224;2023-03-08T08:47:09;5.20;99.90
21895;DHT22;11112;51.270;7.224;2023-03-08T08:49:36;5.10;99.90
21895;DHT22;11112;51.270;7.224;2023-03-08T08:52:04;5.20;99.90
21895;DHT22;11112;51.270;7.224;2023-03-08T08:54:33;5.20;99.90
21895;DHT22;11112;51.270;7.224;2023-03-08T08:57:04;5.10;99.90
21895;DHT22;11112;51.270;7.224;2023-03-08T08:59:34;5.10;99.90
21895;DHT22;11112;51.270;7.224;2023-03-08T09:02:01;5.10;99.90
21895;DHT22;11112;51.270;7.224;2023-03-08T09:04:28;5.10;99.90
21895;DHT22;11112;51.270;7.224;2023-03-08T09:06:56;5.10;99.90
21895;DHT22;11112;51.270;7.224;2023-03-08T09:09:23;5.10;99.90
21895;DHT22;11112;51.270;7.224;2023-03-08T09:11:51;5.10;99.90
21895;DHT22;11112;51.270;7.224;2023-03-08T09:14:19;5.20;99.90
21895;DHT22;11112;51.270;7.224;2023-03-08T09:16:48;5.30;99.90
21895;DHT22;11112;51.270;7.224;2023-03-08T09:19:17;5.30;99.90
21895;DHT22;11112;51.270;7.224;2023-03-08T09:21:44;5.40;99.90
21895;DHT22;11112;51.270;7.224;2023-03-08T09:24:12;5.40;99.90
21895;DHT22;11112;51.270;7.224;2023-03-08T09:26:41;5.30;99.90
21895;DHT22;11112;51.270;7.224;2023-03-08T09:29:09;5.30;99.90
21895;DHT22;11112;51.270;7.224;2023-03-08T09:31:38;5.30;99.90
21895;DHT22;11112;51.270;7.224;2023-03-08T09:34:10;5.40;99.90
21895;DHT22;11112;51.270;7.224;2023-03-08T09:36:39;5.40;99.90
21895;DHT22;11112;51.270;7.224;2023-03-08T09:39:10;5.40;99.90
21895;DHT22;11112;51.270;7.224;2023-03-08T09:41:47;5.30;99.90
21895;DHT22;11112;51.270;7.224;2023-03-08T09:44:41;5.40;99.90
21895;DHT22;11112;51.270;7.224;2023-03-08T09:47:24;5.40;99.90
21895;DHT22;11112;51.270;7.224;2023-03-08T09:50:03;5.40;99.90
21895;DHT22;11112;51.270;7.224;2023-03-08T09:52:39;5.40;99.90
21895;DHT22;11112;51.270;7.224;2023-03-08T09:55:19;5.40;99.90
21895;DHT22;11112;51.270;7.224;2023-03-08T09:57:56;5.40;99.90
21895;DHT22;11112;51.270;7.224;2023-03-08T10:00:28;5.40;99.90
21895;DHT22;11112;51.270;7.224;2023-03-08T10:03:25;5.40;99.90
21895;DHT22;11112;51.270;7.224;2023-03-08T10:06:06;5.40;99.90
21895;DHT22;11112;51.270;7.224;2023-03-08T10:08:43;5.30;99.90
21895;DHT22;11112;51.270;7.224;2023-03-08T10:11:17;5.30;99.90
21895;DHT22;11112;51.270;7.224;2023-03-08T10:13:48;5.30;99.90
21895;DHT22;11112;51.270;7.224;2023-03-08T10:16:20;5.40;99.90
21895;DHT22;11112;51.270;7.224;2023-03-08T10:18:51;5.40;99.90
21895;DHT22;11112;51.270;7.224;2023-03-08T10:21:25;5.40;99.90
21895;DHT22;11112;51.270;7.224;2023-03-08T10:23:58;5.40;99.90
21895;DHT22;11112;51.270;7.224;2023-03-08T10:26:27;5.40;99.90
21895;DHT22;11112;51.270;7.224;2023-03-08T10:28:56;5.40;99.90
21895;DHT22;11112;51.270;7.224;2023-03-08T10:31:24;5.30;99.90
21895;DHT22;11112;51.270;7.224;2023-03-08T10:34:02;5.40;99.90
21895;DHT22;11112;51.270;7.224;2023-03-08T10:36:50;5.40;99.90
21895;DHT22;11112;51.270;7.224;2023-03-08T10:39:20;5.40;99.90
21895;DHT22;11112;51.270;7.224;2023-03-08T10:41:50;5.40;99.90
21895;DHT22;11112;51.270;7.224;2023-03-08T10:44:31;5.30;99.90
21895;DHT22;11112;51.270;7.224;2023-03-08T10:47:18;5.20;99.90
21895;DHT22;11112;51.270;7.224;2023-03-08T10:49:48;5.20;99.90
21895;DHT22;11112;51.270;7.224;2023-03-08T10:52:24;5.10;99.90
21895;DHT22;11112;51.270;7.224;2023-03-08T10:55:01;5.20;99.90
21895;DHT22;11112;51.270;7.224;2023-03-08T10:57:38;5.20;99.90
21895;DHT22;11112;51.270;7.224;2023-03-08T11:00:31;5.20;99.90
21895;DHT22;11112;51.270;7.224;2023-03-08T11:03:12;5.30;99.90
21895;DHT22;11112;51.270;7.224;2023-03-08T11:05:54;5.40;99.90
21895;DHT22;11112;51.270;7.224;2023-03-08T11:08:26;5.40;99.90
21895;DHT22;11112;51.270;7.224;2023-03-08T11:11:02;5.50;99.90
21895;DHT22;11112;51.270;7.224;2023-03-08T11:13:35;5.60;99.90
21895;DHT22;11112;51.270;7.224;2023-03-08T11:16:16;5.60;99.90
21895;DHT22;11112;51.270;7.224;2023-03-08T11:18:59;5.60;99.90
21895;DHT22;11112;51.270;7.224;2023-03-08T11:21:48;5.50;99.90
21895;DHT22;11112;51.270;7.224;2023-03-08T11:24:31;5.60;99.90
21895;DHT22;11112;51.270;7.224;2023-03-08T11:27:36;5.60;99.90
21895;DHT22;11112;51.270;7.224;2023-03-08T11:30:37;5.70;99.90
21895;DHT22;11112;51.270;7.224;2023-03-08T11:33:59;5.70;99.90
21895;DHT22;11112;51.270;7.224;2023-03-08T11:36:39;5.70;99.90
21895;DHT22;11112;51.270;7.224;2023-03-08T11:39:22;5.80;99.90
21895;DHT22;11112;51.270;7.224;2023-03-08T11:42:02;5.70;99.90
21895;DHT22;11112;51.270;7.224;2023-03-08T11:44:43;5.80;99.90
21895;DHT22;11112;51.270;7.224;2023-03-08T11:47:43;5.80;99.90
21895;DHT22;11112;51.270;7.224;2023-03-08T11:50:35;5.70;99.90
21895;DHT22;11112;51.270;7.224;2023-03-08T11:53:27;5.80;99.90
21895;DHT22;11112;51.270;7.224;2023-03-08T11:56:20;5.80;99.90
21895;DHT22;11112;51.270;7.224;2023-03-08T11:58:59;5.80;99.90
21895;DHT22;11112;51.270;7.224;2023-03-08T12:01:36;5.80;99.90
21895;DHT22;11112;51.270;7.224;2023-03-08T12:04:08;5.80;99.90
21895;DHT22;11112;51.270;7.224;2023-03-08T12:06:40;5.80;99.90
21895;DHT22;11112;51.270;7.224;2023-03-08T12:09:15;5.80;99.90
21895;DHT22;11112;51.270;7.224;2023-03-08T12:11:54;5.90;99.90
21895;DHT22;11112;51.270;7.224;2023-03-08T12:14:28;5.90;99.90
21895;DHT22;11112;51.270;7.224;2023-03-08T12:17:03;5.90;99.90
21895;DHT22;11112;51.270;7.224;2023-03-08T12:19:36;5.80;99.90
21895;DHT22;11112;51.270;7.224;2023-03-08T12:22:24;5.70;99.90
21895;DHT22;11112;51.270;7.224;2023-03-08T12:25:06;5.70;99.90
21895;DHT22;11112;51.270;7.224;2023-03-08T12:27:41;5.60;99.90
21895;DHT22;11112;51.270;7.224;2023-03-08T12:30:18;5.60;99.90
21895;DHT22;11112;51.270;7.224;2023-03-08T12:33:01;5.60;99.90
21895;DHT22;11112;51.270;7.224;2023-03-08T12:35:31;5.60;99.90
21895;DHT22;11112;51.270;7.224;2023-03-08T12:38:02;5.70;99.90
21895;DHT22;11112;51.270;7.224;2023-03-08T12:40:38;5.70;99.90
21895;DHT22;11112;51.270;7.224;2023-03-08T12:43:27;5.70;99.90
21895;DHT22;11112;51.270;7.224;2023-03-08T12:46:03;5.70;99.90
21895;DHT22;11112;51.270;7.224;2023-03-08T12:48:33;5.70;99.90
21895;DHT22;11112;51.270;7.224;2023-03-08T12:51:15;5.70;99.90
21895;DHT22;11112;51.270;7.224;2023-03-08T12:53:56;5.80;99.90
21895;DHT22;11112;51.270;7.224;2023-03-08T12:56:30;5.70;99.90
21895;DHT22;11112;51.270;7.224;2023-03-08T12:59:21;5.70;99.90
21895;DHT22;11112;51.270;7.224;2023-03-08T13:01:59;5.80;99.90
21895;DHT22;11112;51.270;7.224;2023-03-08T13:04:31;5.70;99.90
21895;DHT22;11112;51.270;7.224;2023-03-08T13:07:09;5.80;99.90
21895;DHT22;11112;51.270;7.224;2023-03-08T13:09:49;5.80;99.90
21895;DHT22;11112;51.270;7.224;2023-03-08T13:12:33;5.70;99.90
21895;DHT22;11112;51.270;7.224;2023-03-08T13:15:25;5.80;99.90
21895;DHT22;11112;51.270;7.224;2023-03-08T13:17:59;5.80;99.90
21895;DHT22;11112;51.270;7.224;2023-03-08T13:20:55;5.80;99.90
21895;DHT22;11112;51.270;7.224;2023-03-08T13:23:35;5.90;99.90
21895;DHT22;11112;51.270;7.224;2023-03-08T13:26:17;5.90;99.90
21895;DHT22;11112;51.270;7.224;2023-03-08T13:28:52;5.90;99.90
21895;DHT22;11112;51.270;7.224;2023-03-08T13:31:28;5.90;99.90
21895;DHT22;11112;51.270;7.224;2023-03-08T13:33:57;5.90;99.90
21895;DHT22;11112;51.270;7.224;2023-03-08T13:36:26;5.90;99.90
21895;DHT22;11112;51.270;7.224;2023-03-08T13:38:57;5.80;99.90
21895;DHT22;11112;51.270;7.224;2023-03-08T13:41:33;5.80;99.90
21895;DHT22;11112;51.270;7.224;2023-03-08T13:44:03;5.80;99.90
21895;DHT22;11112;51.270;7.224;2023-03-08T13:46:33;5.80;99.90
21895;DHT22;11112;51.270;7.224;2023-03-08T13:49:02;5.90;99.90
21895;DHT22;11112;51.270;7.224;2023-03-08T13:51:31;5.90;99.90
21895;DHT22;11112;51.270;7.224;2023-03-08T13:54:00;5.90;99.90
21895;DHT22;11112;51.270;7.224;2023-03-08T13:56:27;5.90;99.90
21895;DHT22;11112;51.270;7.224;2023-03-08T13:58:58;5.90;99.90
21895;DHT22;11112;51.270;7.224;2023-03-08T14:01:26;5.90;99.90
21895;DHT22;11112;51.270;7.224;2023-03-08T14:03:55;5.90;99.90
21895;DHT22;11112;51.270;7.224;2023-03-08T14:06:28;5.90;99.90
21895;DHT22;11112;51.270;7.224;2023-03-08T14:08:58;5.90;99.90
21895;DHT22;11112;51.270;7.224;2023-03-08T14:11:28;6.00;99.90
21895;DHT22;11112;51.270;7.224;2023-03-08T14:13:59;6.00;99.90
21895;DHT22;11112;51.270;7.224;2023-03-08T14:16:31;5.90;99.90
21895;DHT22;11112;51.270;7.224;2023-03-08T14:19:09;5.90;99.90
21895;DHT22;11112;51.270;7.224;2023-03-08T14:21:38;6.00;99.90
21895;DHT22;11112;51.270;7.224;2023-03-08T14:24:17;5.90;99.90
21895;DHT22;11112;51.270;7.224;2023-03-08T14:26:54;5.90;99.90
21895;DHT22;11112;51.270;7.224;2023-03-08T14:29:25;5.90;99.90
21895;DHT22;11112;51.270;7.224;2023-03-08T14:31:59;5.90;99.90
21895;DHT22;11112;51.270;7.224;2023-03-08T14:34:32;5.90;99.90
21895;DHT22;11112;51.270;7.224;2023-03-08T14:37:03;5.80;99.90
21895;DHT22;11112;51.270;7.224;2023-03-08T14:39:34;5.80;99.90
21895;DHT22;11112;51.270;7.224;2023-03-08T14:42:10;5.80;99.90
21895;DHT22;11112;51.270;7.224;2023-03-08T14:44:49;5.80;99.90
21895;DHT22;11112;51.270;7.224;2023-03-08T14:47:21;5.80;99.90
21895;DHT22;11112;51.270;7.224;2023-03-08T14:49:56;5.80;99.90
21895;DHT22;11112;51.270;7.224;2023-03-08T14:52:27;5.80;99.90
21895;DHT22;11112;51.270;7.224;2023-03-08T14:54:55;5.80;99.90
21895;DHT22;11112;51.270;7.224;2023-03-08T14:57:24;5.80;99.90
21895;DHT22;11112;51.270;7.224;2023-03-08T14:59:53;5.90;99.90
21895;DHT22;11112;51.270;7.224;2023-03-08T15:02:23;5.90;99.90
21895;DHT22;11112;51.270;7.224;2023-03-08T15:04:51;5.90;99.90
21895;DHT22;11112;51.270;7.224;2023-03-08T15:07:23;5.90;99.90
21895;DHT22;11112;51.270;7.224;2023-03-08T15:09:52;5.90;99.90
21895;DHT22;11112;51.270;7.224;2023-03-08T15:12:19;5.90;99.90
21895;DHT22;11112;51.270;7.224;2023-03-08T15:14:47;5.90;99.90
21895;DHT22;11112;51.270;7.224;2023-03-08T15:17:15;5.90;99.90
21895;DHT22;11112;51.270;7.224;2023-03-08T15:19:44;5.90;99.90
21895;DHT22;11112;51.270;7.224;2023-03-08T15:22:12;5.90;99.90
21895;DHT22;11112;51.270;7.224;2023-03-08T15:24:45;5.90;99.90
21895;DHT22;11112;51.270;7.224;2023-03-08T15:27:13;5.90;99.90
21895;DHT22;11112;51.270;7.224;2023-03-08T15:29:41;6.00;99.90
21895;DHT22;11112;51.270;7.224;2023-03-08T15:32:09;6.00;99.90
21895;DHT22;11112;51.270;7.224;2023-03-08T15:34:37;6.00;99.90
21895;DHT22;11112;51.270;7.224;2023-03-08T15:37:05;5.90;99.90
21895;DHT22;11112;51.270;7.224;2023-03-08T15:39:34;5.90;99.90
21895;DHT22;11112;51.270;7.224;2023-03-08T15:42:03;5.90;99.90
21895;DHT22;11112;51.270;7.224;2023-03-08T15:44:30;5.90;99.90
21895;DHT22;11112;51.270;7.224;2023-03-08T15:46:58;5.80;99.90
21895;DHT22;11112;51.270;7.224;2023-03-08T15:49:26;5.80;99.90
21895;DHT22;11112;51.270;7.224;2023-03-08T15:51:54;5.80;99.90
21895;DHT22;11112;51.270;7.224;2023-03-08T15:54:22;5.90;99.90
21895;DHT22;11112;51.270;7.224;2023-03-08T15:56:49;5.80;99.90
21895;DHT22;11112;51.270;7.224;2023-03-08T15:59:19;5.70;99.90
21895;DHT22;11112;51.270;7.224;2023-03-08T16:01:47;5.80;99.90
21895;DHT22;11112;51.270;7.224;2023-03-08T16:04:15;5.90;99.90
21895;DHT22;11112;51.270;7.224;2023-03-08T16:06:42;5.90;99.90
21895;DHT22;11112;51.270;7.224;2023-03-08T16:09:10;5.90;99.90
21895;DHT22;11112;51.270;7.224;2023-03-08T16:11:39;6.00;99.90